Share

Donnybrook, ND (58734)

Minot Air Force Base (KMIB) Elev 1667 ft | 48.42 °N, 101.36 °W | Change Station
Active Advisory: Flood Warning

Current weather conditions updated 36 minutes ago

Partly Cloudy
Partly Cloudy
48 °F
Feels Like 48 °F
N
20
Wind Variable Wind from SE
Gusts 28 mph
Sunrise 6:51 AM
Sunset 8:43 PM
Moon Waning Gibbous

Tomorrow is forecast to be Warmer than today.

Pressure 29.78 in
Visibility 10.0 miles
Clouds Few 11000 ft
Dew Point 35 °F
Humidity 61%
Rainfall 0.00 in
Snow Depth Not available.
UV 0 out of 16
Pollen 8.60 out of 12
Air Quality Not available.
Flu Activity Sporadic
METAR KMIB 190058Z AUTO 13017G24KT 10SM FEW110 09/02 A2973 RMK AO2 PK WND 14032/36 SLP085 T00860015 $

More Conditions Fewer Conditions

Pressure 29.78 in
Visibility 10.0 miles
Clouds Few 11000 ft
Dew Point 35 °F
Humidity 61%
Rainfall 0.00 in
Snow Depth Not available.
UV 0 out of 16
Pollen 8.60 out of 12
Air Quality Not available.
Flu Activity Sporadic
METAR KMIB 190058Z AUTO 13017G24KT 10SM FEW110 09/02 A2973 RMK AO2 PK WND 14032/36 SLP085 T00860015 $

More Conditions Fewer Conditions

10-Day Weather Forecast

Almanac

Astronomy

Apr. 18, 2014 Rise Set
Actual Time 6:51 AM CDT 8:43 PM CDT
Civil Twilight 6:18 AM CDT 9:16 PM CDT
Nautical Twilight 5:37 AM CDT 9:57 PM CDT
Astronomical Twilight 4:52 AM CDT 10:43 PM CDT
Moon No Moon Rise 9:04 AM CDT (4/18)
Length of Visible Light 14h 58m
Length of Day
13h 51m
Tomorrow will be 3m 22s longer.
Waning Gibbous, 84% of the Moon is Illuminated
Today
Waning Gibbous
Apr 22
Last Quarter
Apr 29
New
May 6
First Quarter
May 14
Full

Today's Extremes

State Highs State Lows

Community

  • Cloudy spring view
    Cloudy spring view
  • Old barn
    Old barn
  • What's for Lunch?
    What's for Lunch?
  • SUNRISE THROUGH THE TREES.
    SUNRISE THROUGH THE TREES.
  • Dog Wood Blossoms
    Dog Wood Blossoms

WunderPhotos

Upload Photos

1,702,565 photos uploaded!

Nearby

Snow Depth

Station Depth Elevation
No new snow has been reported.

Coastal Water Temperatures

Place Temperature
No Stations Reporting

Earthquake Activity

City Distance Mag. Time & Date
No recent earthquake activity has been reported nearby.
Minimum magnitude displayed is 2.5.

Nearby Weather Stations

Station Location Temp. Windchill Dew Point Humidity Wind Precip. Elev Updated Type
NDDOT Blaisdell US 2 MP 106, Berthold, ND 49 °F 43 °F 30 °F 48% WNW  at  16 mph 0.00 in / hr 1599 ft 7:08 PM CDT MADIS

Show More Stations Show Fewer Stations

What do you think?

We're not finished. Please let us know what you like, what you don't like, and what you are still missing.